Terminal Aerodrome Forecast
Issued by NWS

Home | Current Version | Previous Version | Text Only | Print | Product List | Glossary On
Versions: 1 2 3 4 5 6 7 8 9 10 11 12
000
FTUS43 KEAX 230500
TAFMKC
TAF
KMKC 230520Z 2306/2406 02007KT P6SM SCT035
     FM231400 03010KT P6SM FEW250
     FM240200 07006KT P6SM SKC=

USA.gov is the U.S. government's official web portal to all federal, state and local government web resources and services.